sensor_id;sensor_type;location;lat;lon;timestamp;P1;P2;P0
44684;PMS5003;76140;45.696;8.652;2024-02-28T11:44:12;3;2;
44684;PMS5003;76140;45.696;8.652;2024-02-28T11:46:37;2;2;
44684;PMS5003;76140;45.696;8.652;2024-02-28T11:49:02;4;3;
44684;PMS5003;76140;45.696;8.652;2024-02-28T11:52:11;3;3;
44684;PMS5003;76140;45.696;8.652;2024-02-28T11:54:33;3;3;
44684;PMS5003;76140;45.696;8.652;2024-02-28T11:56:53;4;3;
44684;PMS5003;76140;45.696;8.652;2024-02-28T11:59:18;1;1;
44684;PMS5003;76140;45.696;8.652;2024-02-28T12:01:43;4;3;
44684;PMS5003;76140;45.696;8.652;2024-02-28T12:04:08;3;3;
44684;PMS5003;76140;45.696;8.652;2024-02-28T12:06:33;3;3;
44684;PMS5003;76140;45.696;8.652;2024-02-28T12:08:58;4;3;
44684;PMS5003;76140;45.696;8.652;2024-02-28T12:11:24;4;4;
44684;PMS5003;76140;45.696;8.652;2024-02-28T12:13:49;1;1;
44684;PMS5003;76140;45.696;8.652;2024-02-28T12:16:14;3;2;
44684;PMS5003;76140;45.696;8.652;2024-02-28T12:18:39;2;2;
44684;PMS5003;76140;45.696;8.652;2024-02-28T12:21:04;2;2;
44684;PMS5003;76140;45.696;8.652;2024-02-28T12:23:29;2;2;
44684;PMS5003;76140;45.696;8.652;2024-02-28T12:25:54;2;2;
44684;PMS5003;76140;45.696;8.652;2024-02-28T12:28:19;2;2;
44684;PMS5003;76140;45.696;8.652;2024-02-28T12:30:44;2;2;
44684;PMS5003;76140;45.696;8.652;2024-02-28T12:33:10;3;3;
44684;PMS5003;76140;45.696;8.652;2024-02-28T12:35:34;3;3;
44684;PMS5003;76140;45.696;8.652;2024-02-28T12:37:59;2;2;
44684;PMS5003;76140;45.696;8.652;2024-02-28T12:40:24;3;2;
44684;PMS5003;76140;45.696;8.652;2024-02-28T12:42:49;1;1;
44684;PMS5003;76140;45.696;8.652;2024-02-28T12:45:14;4;4;
44684;PMS5003;76140;45.696;8.652;2024-02-28T12:47:39;3;3;
44684;PMS5003;76140;45.696;8.652;2024-02-28T12:50:05;3;3;
44684;PMS5003;76140;45.696;8.652;2024-02-28T12:52:29;2;2;
44684;PMS5003;76140;45.696;8.652;2024-02-28T12:54:54;1;1;
44684;PMS5003;76140;45.696;8.652;2024-02-28T12:57:19;2;2;
44684;PMS5003;76140;45.696;8.652;2024-02-28T12:59:44;3;3;
44684;PMS5003;76140;45.696;8.652;2024-02-28T13:02:10;2;2;
44684;PMS5003;76140;45.696;8.652;2024-02-28T13:04:34;1;1;
44684;PMS5003;76140;45.696;8.652;2024-02-28T13:07:00;1;1;
44684;PMS5003;76140;45.696;8.652;2024-02-28T13:09:25;3;3;
44684;PMS5003;76140;45.696;8.652;2024-02-28T13:11:50;4;3;
44684;PMS5003;76140;45.696;8.652;2024-02-28T13:14:15;3;3;
44684;PMS5003;76140;45.696;8.652;2024-02-28T13:16:40;3;3;
44684;PMS5003;76140;45.696;8.652;2024-02-28T13:19:05;2;2;
44684;PMS5003;76140;45.696;8.652;2024-02-28T13:21:30;3;2;
44684;PMS5003;76140;45.696;8.652;2024-02-28T13:23:55;3;3;
44684;PMS5003;76140;45.696;8.652;2024-02-28T13:26:20;4;4;
44684;PMS5003;76140;45.696;8.652;2024-02-28T13:28:45;3;2;
44684;PMS5003;76140;45.696;8.652;2024-02-28T13:31:10;1;1;
44684;PMS5003;76140;45.696;8.652;2024-02-28T13:33:35;2;2;
44684;PMS5003;76140;45.696;8.652;2024-02-28T13:36:00;2;2;
44684;PMS5003;76140;45.696;8.652;2024-02-28T13:38:25;2;2;
44684;PMS5003;76140;45.696;8.652;2024-02-28T13:40:50;2;2;
44684;PMS5003;76140;45.696;8.652;2024-02-28T13:43:15;2;2;
44684;PMS5003;76140;45.696;8.652;2024-02-28T13:45:40;0;0;
44684;PMS5003;76140;45.696;8.652;2024-02-28T13:48:14;2;2;
44684;PMS5003;76140;45.696;8.652;2024-02-28T13:50:31;3;3;
44684;PMS5003;76140;45.696;8.652;2024-02-28T13:52:56;2;2;
44684;PMS5003;76140;45.696;8.652;2024-02-28T13:55:21;2;2;
44684;PMS5003;76140;45.696;8.652;2024-02-28T13:57:46;3;2;
44684;PMS5003;76140;45.696;8.652;2024-02-28T14:00:11;1;1;
44684;PMS5003;76140;45.696;8.652;2024-02-28T14:02:36;2;2;
44684;PMS5003;76140;45.696;8.652;2024-02-28T14:05:01;1;1;
44684;PMS5003;76140;45.696;8.652;2024-02-28T14:07:26;1;1;
44684;PMS5003;76140;45.696;8.652;2024-02-28T14:09:51;1;1;
44684;PMS5003;76140;45.696;8.652;2024-02-28T14:12:16;1;1;
44684;PMS5003;76140;45.696;8.652;2024-02-28T14:14:41;1;1;
44684;PMS5003;76140;45.696;8.652;2024-02-28T14:17:06;0;0;
44684;PMS5003;76140;45.696;8.652;2024-02-28T14:19:31;1;1;
44684;PMS5003;76140;45.696;8.652;2024-02-28T14:21:56;1;1;
44684;PMS5003;76140;45.696;8.652;2024-02-28T14:24:22;1;1;
44684;PMS5003;76140;45.696;8.652;2024-02-28T14:26:52;1;1;
44684;PMS5003;76140;45.696;8.652;2024-02-28T14:29:53;0;0;
44684;PMS5003;76140;45.696;8.652;2024-02-28T14:32:17;1;1;
44684;PMS5003;76140;45.696;8.652;2024-02-28T14:34:43;1;1;
44684;PMS5003;76140;45.696;8.652;2024-02-28T14:37:07;0;0;
44684;PMS5003;76140;45.696;8.652;2024-02-28T14:39:32;0;0;
44684;PMS5003;76140;45.696;8.652;2024-02-28T14:41:58;0;0;
44684;PMS5003;76140;45.696;8.652;2024-02-28T14:44:23;0;0;
44684;PMS5003;76140;45.696;8.652;2024-02-28T14:46:48;0;0;
44684;PMS5003;76140;45.696;8.652;2024-02-28T14:49:13;0;0;
44684;PMS5003;76140;45.696;8.652;2024-02-28T14:51:38;0;0;
44684;PMS5003;76140;45.696;8.652;2024-02-28T14:54:03;1;1;
44684;PMS5003;76140;45.696;8.652;2024-02-28T14:56:28;0;0;
44684;PMS5003;76140;45.696;8.652;2024-02-28T14:58:53;1;1;
44684;PMS5003;76140;45.696;8.652;2024-02-28T15:01:18;0;0;
44684;PMS5003;76140;45.696;8.652;2024-02-28T15:03:43;2;1;
44684;PMS5003;76140;45.696;8.652;2024-02-28T15:06:08;2;1;
44684;PMS5003;76140;45.696;8.652;2024-02-28T15:08:33;1;1;
44684;PMS5003;76140;45.696;8.652;2024-02-28T15:10:58;0;0;
44684;PMS5003;76140;45.696;8.652;2024-02-28T15:13:23;2;2;
44684;PMS5003;76140;45.696;8.652;2024-02-28T15:15:49;1;0;
44684;PMS5003;76140;45.696;8.652;2024-02-28T15:18:14;1;1;
44684;PMS5003;76140;45.696;8.652;2024-02-28T15:20:39;1;1;
44684;PMS5003;76140;45.696;8.652;2024-02-28T15:23:04;17;17;
44684;PMS5003;76140;45.696;8.652;2024-02-28T15:25:29;5;5;
44684;PMS5003;76140;45.696;8.652;2024-02-28T15:27:54;2;2;
44684;PMS5003;76140;45.696;8.652;2024-02-28T15:30:19;3;2;
44684;PMS5003;76140;45.696;8.652;2024-02-28T15:32:44;1;1;
44684;PMS5003;76140;45.696;8.652;2024-02-28T15:35:10;3;2;
44684;PMS5003;76140;45.696;8.652;2024-02-28T15:37:34;2;2;
44684;PMS5003;76140;45.696;8.652;2024-02-28T15:40:00;70;68;
44684;PMS5003;76140;45.696;8.652;2024-02-28T15:42:25;2;2;
44684;PMS5003;76140;45.696;8.652;2024-02-28T15:44:50;3;3;
44684;PMS5003;76140;45.696;8.652;2024-02-28T15:47:16;3;3;
44684;PMS5003;76140;45.696;8.652;2024-02-28T15:49:41;2;2;
44684;PMS5003;76140;45.696;8.652;2024-02-28T15:52:08;1;1;
44684;PMS5003;76140;45.696;8.652;2024-02-28T15:54:31;2;2;
44684;PMS5003;76140;45.696;8.652;2024-02-28T15:56:56;2;2;
44684;PMS5003;76140;45.696;8.652;2024-02-28T15:59:22;4;4;
44684;PMS5003;76140;45.696;8.652;2024-02-28T16:01:47;3;3;
44684;PMS5003;76140;45.696;8.652;2024-02-28T16:04:12;3;3;
44684;PMS5003;76140;45.696;8.652;2024-02-28T16:06:37;4;4;
44684;PMS5003;76140;45.696;8.652;2024-02-28T16:09:02;4;4;
44684;PMS5003;76140;45.696;8.652;2024-02-28T16:11:27;4;4;
44684;PMS5003;76140;45.696;8.652;2024-02-28T16:13:52;4;4;
44684;PMS5003;76140;45.696;8.652;2024-02-28T16:16:17;5;5;
44684;PMS5003;76140;45.696;8.652;2024-02-28T16:18:43;4;4;
44684;PMS5003;76140;45.696;8.652;2024-02-28T16:21:07;3;3;
44684;PMS5003;76140;45.696;8.652;2024-02-28T16:23:33;6;6;
44684;PMS5003;76140;45.696;8.652;2024-02-28T16:25:58;4;4;
44684;PMS5003;76140;45.696;8.652;2024-02-28T16:28:24;4;4;
44684;PMS5003;76140;45.696;8.652;2024-02-28T16:30:48;5;5;
44684;PMS5003;76140;45.696;8.652;2024-02-28T16:33:14;7;6;
44684;PMS5003;76140;45.696;8.652;2024-02-28T16:35:39;5;5;
44684;PMS5003;76140;45.696;8.652;2024-02-28T16:38:04;5;5;
44684;PMS5003;76140;45.696;8.652;2024-02-28T16:40:29;7;5;
44684;PMS5003;76140;45.696;8.652;2024-02-28T16:42:54;7;6;
44684;PMS5003;76140;45.696;8.652;2024-02-28T16:45:19;8;7;
44684;PMS5003;76140;45.696;8.652;2024-02-28T16:47:44;9;9;
44684;PMS5003;76140;45.696;8.652;2024-02-28T16:50:09;8;7;
44684;PMS5003;76140;45.696;8.652;2024-02-28T16:52:35;8;8;
44684;PMS5003;76140;45.696;8.652;2024-02-28T16:55:00;12;12;
44684;PMS5003;76140;45.696;8.652;2024-02-28T16:57:25;31;30;
44684;PMS5003;76140;45.696;8.652;2024-02-28T16:59:51;26;24;
44684;PMS5003;76140;45.696;8.652;2024-02-28T17:02:16;30;29;
44684;PMS5003;76140;45.696;8.652;2024-02-28T17:04:41;27;26;
44684;PMS5003;76140;45.696;8.652;2024-02-28T17:07:06;21;21;
44684;PMS5003;76140;45.696;8.652;2024-02-28T17:09:32;20;18;
44684;PMS5003;76140;45.696;8.652;2024-02-28T17:11:57;24;23;
44684;PMS5003;76140;45.696;8.652;2024-02-28T17:14:22;15;15;
44684;PMS5003;76140;45.696;8.652;2024-02-28T17:16:48;33;32;
44684;PMS5003;76140;45.696;8.652;2024-02-28T17:19:14;35;33;
44684;PMS5003;76140;45.696;8.652;2024-02-28T17:21:39;56;53;
44684;PMS5003;76140;45.696;8.652;2024-02-28T17:24:04;56;54;
44684;PMS5003;76140;45.696;8.652;2024-02-28T17:26:30;35;35;
44684;PMS5003;76140;45.696;8.652;2024-02-28T17:28:55;55;52;
44684;PMS5003;76140;45.696;8.652;2024-02-28T17:31:20;224;197;
44684;PMS5003;76140;45.696;8.652;2024-02-28T17:33:46;114;102;
44684;PMS5003;76140;45.696;8.652;2024-02-28T17:36:12;24;22;
44684;PMS5003;76140;45.696;8.652;2024-02-28T17:38:37;66;65;
44684;PMS5003;76140;45.696;8.652;2024-02-28T17:41:02;57;55;
44684;PMS5003;76140;45.696;8.652;2024-02-28T17:43:28;24;23;
44684;PMS5003;76140;45.696;8.652;2024-02-28T17:45:53;32;31;
44684;PMS5003;76140;45.696;8.652;2024-02-28T17:48:19;9;8;
44684;PMS5003;76140;45.696;8.652;2024-02-28T17:50:44;16;14;
44684;PMS5003;76140;45.696;8.652;2024-02-28T17:53:10;19;18;
44684;PMS5003;76140;45.696;8.652;2024-02-28T17:55:35;13;13;
44684;PMS5003;76140;45.696;8.652;2024-02-28T17:58:01;10;9;
44684;PMS5003;76140;45.696;8.652;2024-02-28T18:00:26;12;11;
44684;PMS5003;76140;45.696;8.652;2024-02-28T18:02:51;12;10;
44684;PMS5003;76140;45.696;8.652;2024-02-28T18:05:16;7;7;
44684;PMS5003;76140;45.696;8.652;2024-02-28T18:07:41;12;12;
44684;PMS5003;76140;45.696;8.652;2024-02-28T18:10:07;11;10;
44684;PMS5003;76140;45.696;8.652;2024-02-28T18:12:32;13;13;
44684;PMS5003;76140;45.696;8.652;2024-02-28T18:14:57;16;15;
44684;PMS5003;76140;45.696;8.652;2024-02-28T18:17:22;18;18;
44684;PMS5003;76140;45.696;8.652;2024-02-28T18:19:47;12;11;
44684;PMS5003;76140;45.696;8.652;2024-02-28T18:22:13;14;14;
44684;PMS5003;76140;45.696;8.652;2024-02-28T18:24:38;14;14;
44684;PMS5003;76140;45.696;8.652;2024-02-28T18:27:04;11;11;
44684;PMS5003;76140;45.696;8.652;2024-02-28T18:29:29;13;12;
44684;PMS5003;76140;45.696;8.652;2024-02-28T18:31:54;15;14;
44684;PMS5003;76140;45.696;8.652;2024-02-28T18:34:19;17;17;
44684;PMS5003;76140;45.696;8.652;2024-02-28T18:36:44;18;17;
44684;PMS5003;76140;45.696;8.652;2024-02-28T18:39:10;19;19;
44684;PMS5003;76140;45.696;8.652;2024-02-28T18:41:35;21;20;
44684;PMS5003;76140;45.696;8.652;2024-02-28T18:44:00;17;17;
44684;PMS5003;76140;45.696;8.652;2024-02-28T18:46:26;16;15;
44684;PMS5003;76140;45.696;8.652;2024-02-28T18:48:51;13;13;
44684;PMS5003;76140;45.696;8.652;2024-02-28T18:51:16;20;20;
44684;PMS5003;76140;45.696;8.652;2024-02-28T18:53:42;85;81;
44684;PMS5003;76140;45.696;8.652;2024-02-28T18:56:08;90;88;
44684;PMS5003;76140;45.696;8.652;2024-02-28T18:58:33;56;54;
44684;PMS5003;76140;45.696;8.652;2024-02-28T19:00:58;146;132;
44684;PMS5003;76140;45.696;8.652;2024-02-28T19:03:24;307;266;
44684;PMS5003;76140;45.696;8.652;2024-02-28T19:05:50;270;247;
44684;PMS5003;76140;45.696;8.652;2024-02-28T19:08:15;167;161;
44684;PMS5003;76140;45.696;8.652;2024-02-28T19:10:40;143;140;
44684;PMS5003;76140;45.696;8.652;2024-02-28T19:13:06;116;112;
44684;PMS5003;76140;45.696;8.652;2024-02-28T19:15:31;132;128;
44684;PMS5003;76140;45.696;8.652;2024-02-28T19:17:56;103;97;
44684;PMS5003;76140;45.696;8.652;2024-02-28T19:20:22;99;94;
44684;PMS5003;76140;45.696;8.652;2024-02-28T19:22:47;76;71;
44684;PMS5003;76140;45.696;8.652;2024-02-28T19:25:13;87;83;
44684;PMS5003;76140;45.696;8.652;2024-02-28T19:27:39;130;125;
44684;PMS5003;76140;45.696;8.652;2024-02-28T19:30:05;129;126;
44684;PMS5003;76140;45.696;8.652;2024-02-28T19:32:30;114;113;
44684;PMS5003;76140;45.696;8.652;2024-02-28T19:34:56;98;93;
44684;PMS5003;76140;45.696;8.652;2024-02-28T19:37:21;60;58;
44684;PMS5003;76140;45.696;8.652;2024-02-28T19:39:47;47;44;
44684;PMS5003;76140;45.696;8.652;2024-02-28T19:42:12;46;44;
44684;PMS5003;76140;45.696;8.652;2024-02-28T19:44:38;39;39;
44684;PMS5003;76140;45.696;8.652;2024-02-28T19:47:03;39;36;
44684;PMS5003;76140;45.696;8.652;2024-02-28T19:49:29;32;31;
44684;PMS5003;76140;45.696;8.652;2024-02-28T19:51:55;47;46;
44684;PMS5003;76140;45.696;8.652;2024-02-28T19:54:20;55;51;
44684;PMS5003;76140;45.696;8.652;2024-02-28T19:56:46;71;69;
44684;PMS5003;76140;45.696;8.652;2024-02-28T19:59:11;78;77;
44684;PMS5003;76140;45.696;8.652;2024-02-28T20:01:36;75;71;
44684;PMS5003;76140;45.696;8.652;2024-02-28T20:04:01;72;70;
44684;PMS5003;76140;45.696;8.652;2024-02-28T20:06:26;66;63;
44684;PMS5003;76140;45.696;8.652;2024-02-28T20:08:52;67;65;
44684;PMS5003;76140;45.696;8.652;2024-02-28T20:11:18;59;56;
44684;PMS5003;76140;45.696;8.652;2024-02-28T20:13:43;66;64;
44684;PMS5003;76140;45.696;8.652;2024-02-28T20:16:08;55;52;
44684;PMS5003;76140;45.696;8.652;2024-02-28T20:18:34;62;60;
44684;PMS5003;76140;45.696;8.652;2024-02-28T20:21:00;48;48;
44684;PMS5003;76140;45.696;8.652;2024-02-28T20:23:25;49;48;
44684;PMS5003;76140;45.696;8.652;2024-02-28T20:25:51;58;56;
44684;PMS5003;76140;45.696;8.652;2024-02-28T20:28:17;75;72;
44684;PMS5003;76140;45.696;8.652;2024-02-28T20:30:42;76;71;
44684;PMS5003;76140;45.696;8.652;2024-02-28T20:33:08;72;69;
44684;PMS5003;76140;45.696;8.652;2024-02-28T20:35:33;63;61;
44684;PMS5003;76140;45.696;8.652;2024-02-28T20:37:58;59;55;
44684;PMS5003;76140;45.696;8.652;2024-02-28T20:40:24;57;55;
44684;PMS5003;76140;45.696;8.652;2024-02-28T20:42:49;57;55;
44684;PMS5003;76140;45.696;8.652;2024-02-28T20:45:15;62;58;
44684;PMS5003;76140;45.696;8.652;2024-02-28T20:47:40;64;63;
44684;PMS5003;76140;45.696;8.652;2024-02-28T20:50:06;59;58;
44684;PMS5003;76140;45.696;8.652;2024-02-28T20:52:31;58;55;
44684;PMS5003;76140;45.696;8.652;2024-02-28T20:54:57;65;61;
44684;PMS5003;76140;45.696;8.652;2024-02-28T20:57:23;63;60;
44684;PMS5003;76140;45.696;8.652;2024-02-28T20:59:48;56;55;
44684;PMS5003;76140;45.696;8.652;2024-02-28T21:02:13;59;57;
44684;PMS5003;76140;45.696;8.652;2024-02-28T21:04:39;49;47;
44684;PMS5003;76140;45.696;8.652;2024-02-28T21:07:04;50;49;
44684;PMS5003;76140;45.696;8.652;2024-02-28T21:09:30;60;60;
44684;PMS5003;76140;45.696;8.652;2024-02-28T21:12:00;68;64;
44684;PMS5003;76140;45.696;8.652;2024-02-28T21:14:20;68;68;
44684;PMS5003;76140;45.696;8.652;2024-02-28T21:16:46;49;48;
44684;PMS5003;76140;45.696;8.652;2024-02-28T21:19:12;54;52;
44684;PMS5003;76140;45.696;8.652;2024-02-28T21:21:37;56;55;
44684;PMS5003;76140;45.696;8.652;2024-02-28T21:24:02;59;57;
44684;PMS5003;76140;45.696;8.652;2024-02-28T21:26:28;101;94;
44684;PMS5003;76140;45.696;8.652;2024-02-28T21:28:53;60;56;
44684;PMS5003;76140;45.696;8.652;2024-02-28T21:31:18;62;60;
44684;PMS5003;76140;45.696;8.652;2024-02-28T21:33:44;68;62;
44684;PMS5003;76140;45.696;8.652;2024-02-28T21:36:09;60;56;
44684;PMS5003;76140;45.696;8.652;2024-02-28T21:38:34;56;52;
44684;PMS5003;76140;45.696;8.652;2024-02-28T21:41:00;55;54;
44684;PMS5003;76140;45.696;8.652;2024-02-28T21:43:25;48;47;
44684;PMS5003;76140;45.696;8.652;2024-02-28T21:45:51;54;52;
44684;PMS5003;76140;45.696;8.652;2024-02-28T21:48:16;55;53;
44684;PMS5003;76140;45.696;8.652;2024-02-28T21:50:41;52;47;
44684;PMS5003;76140;45.696;8.652;2024-02-28T21:53:07;47;45;
44684;PMS5003;76140;45.696;8.652;2024-02-28T21:55:32;52;51;
44684;PMS5003;76140;45.696;8.652;2024-02-28T21:58:01;50;48;
44684;PMS5003;76140;45.696;8.652;2024-02-28T22:00:23;53;51;
44684;PMS5003;76140;45.696;8.652;2024-02-28T22:02:49;53;53;
44684;PMS5003;76140;45.696;8.652;2024-02-28T22:05:14;51;49;
44684;PMS5003;76140;45.696;8.652;2024-02-28T22:07:40;49;47;
44684;PMS5003;76140;45.696;8.652;2024-02-28T22:10:05;53;51;
44684;PMS5003;76140;45.696;8.652;2024-02-28T22:12:31;54;49;
44684;PMS5003;76140;45.696;8.652;2024-02-28T22:14:56;51;48;
44684;PMS5003;76140;45.696;8.652;2024-02-28T22:17:22;49;47;
44684;PMS5003;76140;45.696;8.652;2024-02-28T22:19:48;43;41;
44684;PMS5003;76140;45.696;8.652;2024-02-28T22:22:13;42;41;
44684;PMS5003;76140;45.696;8.652;2024-02-28T22:24:39;37;35;
44684;PMS5003;76140;45.696;8.652;2024-02-28T22:27:04;45;42;
44684;PMS5003;76140;45.696;8.652;2024-02-28T22:29:29;45;43;
44684;PMS5003;76140;45.696;8.652;2024-02-28T22:31:55;45;42;
44684;PMS5003;76140;45.696;8.652;2024-02-28T22:34:20;38;38;
44684;PMS5003;76140;45.696;8.652;2024-02-28T22:36:46;49;46;
44684;PMS5003;76140;45.696;8.652;2024-02-28T22:39:11;57;53;
44684;PMS5003;76140;45.696;8.652;2024-02-28T22:41:36;43;41;
44684;PMS5003;76140;45.696;8.652;2024-02-28T22:44:02;52;48;
44684;PMS5003;76140;45.696;8.652;2024-02-28T22:46:27;100;88;
44684;PMS5003;76140;45.696;8.652;2024-02-28T22:48:52;97;89;
44684;PMS5003;76140;45.696;8.652;2024-02-28T22:51:18;54;52;
44684;PMS5003;76140;45.696;8.652;2024-02-28T22:53:44;102;96;
44684;PMS5003;76140;45.696;8.652;2024-02-28T22:56:09;115;109;
44684;PMS5003;76140;45.696;8.652;2024-02-28T22:58:34;149;132;
44684;PMS5003;76140;45.696;8.652;2024-02-28T23:01:00;142;132;
44684;PMS5003;76140;45.696;8.652;2024-02-28T23:03:25;112;103;
44684;PMS5003;76140;45.696;8.652;2024-02-28T23:05:50;73;69;
44684;PMS5003;76140;45.696;8.652;2024-02-28T23:08:16;54;47;
44684;PMS5003;76140;45.696;8.652;2024-02-28T23:10:41;53;49;
44684;PMS5003;76140;45.696;8.652;2024-02-28T23:13:07;56;53;
44684;PMS5003;76140;45.696;8.652;2024-02-28T23:15:33;48;44;
44684;PMS5003;76140;45.696;8.652;2024-02-28T23:17:58;49;46;
44684;PMS5003;76140;45.696;8.652;2024-02-28T23:20:24;38;37;
44684;PMS5003;76140;45.696;8.652;2024-02-28T23:22:48;35;35;
44684;PMS5003;76140;45.696;8.652;2024-02-28T23:25:14;33;32;
44684;PMS5003;76140;45.696;8.652;2024-02-28T23:27:39;36;35;
44684;PMS5003;76140;45.696;8.652;2024-02-28T23:30:05;38;37;
44684;PMS5003;76140;45.696;8.652;2024-02-28T23:32:31;39;37;
44684;PMS5003;76140;45.696;8.652;2024-02-28T23:34:56;43;41;
44684;PMS5003;76140;45.696;8.652;2024-02-28T23:37:22;43;41;
44684;PMS5003;76140;45.696;8.652;2024-02-28T23:39:47;42;41;
44684;PMS5003;76140;45.696;8.652;2024-02-28T23:42:12;48;45;
44684;PMS5003;76140;45.696;8.652;2024-02-28T23:44:37;51;47;
44684;PMS5003;76140;45.696;8.652;2024-02-28T23:47:03;48;48;
44684;PMS5003;76140;45.696;8.652;2024-02-28T23:49:28;52;48;
44684;PMS5003;76140;45.696;8.652;2024-02-28T23:51:54;46;45;
44684;PMS5003;76140;45.696;8.652;2024-02-28T23:54:19;45;45;
44684;PMS5003;76140;45.696;8.652;2024-02-28T23:56:44;41;40;
44684;PMS5003;76140;45.696;8.652;2024-02-28T23:59:10;43;42;
